createdAt,value
2019-05-09T00:02:34.686Z,13.01
2019-05-09T00:05:05.072Z,12.97
2019-05-09T00:07:34.732Z,12.99
2019-05-09T00:10:05.591Z,13.01
2019-05-09T00:12:35.241Z,12.98
2019-05-09T00:15:06.705Z,12.98
2019-05-09T00:17:36.365Z,12.95
2019-05-09T00:20:08.170Z,12.91
2019-05-09T00:22:37.836Z,12.86
2019-05-09T00:25:07.890Z,12.89
2019-05-09T00:27:37.768Z,12.94
2019-05-09T00:30:08.005Z,12.95
2019-05-09T00:32:39.396Z,13.01
2019-05-09T00:35:23.375Z,12.97
2019-05-09T00:37:54.938Z,12.91
2019-05-09T00:40:25.208Z,12.90
2019-05-09T00:42:55.127Z,12.95
2019-05-09T00:45:43.771Z,12.94
2019-05-09T00:48:14.524Z,12.90
2019-05-09T00:50:44.147Z,12.94
2019-05-09T00:53:13.927Z,12.89
2019-05-09T00:55:43.721Z,12.90
2019-05-09T00:58:13.682Z,12.94
2019-05-09T01:00:43.950Z,12.96
2019-05-09T01:03:14.315Z,12.97
2019-05-09T01:05:47.240Z,13.00
2019-05-09T01:08:16.605Z,13.01
2019-05-09T01:10:47.685Z,13.02
2019-05-09T01:13:18.828Z,13.05
2019-05-09T01:15:49.883Z,13.04
2019-05-09T01:18:19.537Z,13.04
2019-05-09T01:20:49.261Z,13.07
2019-05-09T01:23:20.348Z,13.05
2019-05-09T01:25:52.958Z,13.10
2019-05-09T01:28:23.216Z,13.09
2019-05-09T01:30:53.307Z,13.08
2019-05-09T01:33:24.730Z,12.95
2019-05-09T01:35:54.852Z,12.94
2019-05-09T01:38:24.522Z,12.97
2019-05-09T01:40:54.138Z,12.89
2019-05-09T01:43:24.409Z,12.86
2019-05-09T01:45:54.174Z,12.85
2019-05-09T01:48:23.827Z,12.81
2019-05-09T01:50:53.829Z,12.79
2019-05-09T01:53:25.115Z,12.75
2019-05-09T01:55:57.785Z,12.70
2019-05-09T01:58:29.146Z,12.72
2019-05-09T02:00:59.345Z,12.64
2019-05-09T02:03:29.140Z,12.55
2019-05-09T02:05:58.797Z,12.59
2019-05-09T02:08:28.447Z,12.62
2019-05-09T02:10:58.104Z,12.57
2019-05-09T02:13:27.731Z,12.56
2019-05-09T02:16:14.694Z,12.50
2019-05-09T02:18:45.989Z,12.50
2019-05-09T02:21:15.641Z,12.47
2019-05-09T02:23:45.273Z,12.50
2019-05-09T02:26:15.393Z,12.49
2019-05-09T02:28:45.015Z,12.48
2019-05-09T02:31:16.289Z,12.43
2019-05-09T02:33:46.123Z,12.44
2019-05-09T02:36:18.753Z,12.37
2019-05-09T02:38:48.763Z,12.40
2019-05-09T02:41:19.726Z,12.41
2019-05-09T02:43:49.974Z,12.42
2019-05-09T02:46:29.406Z,12.37
2019-05-09T02:48:59.492Z,12.38
2019-05-09T02:51:29.552Z,12.39
2019-05-09T02:53:59.201Z,12.30
2019-05-09T02:56:29.827Z,12.30
2019-05-09T02:59:10.153Z,12.32
2019-05-09T03:01:58.753Z,12.30
2019-05-09T03:04:28.646Z,12.33
2019-05-09T03:06:59.653Z,12.35
2019-05-09T03:09:29.662Z,12.29
2019-05-09T03:12:19.533Z,12.25
2019-05-09T03:14:31.670Z,12.25
2019-05-09T03:17:01.325Z,12.29
2019-05-09T03:19:31.043Z,12.27
2019-05-09T03:22:13.766Z,12.24
2019-05-09T03:24:43.393Z,12.22
2019-05-09T03:27:18.725Z,12.23
2019-05-09T03:29:50.053Z,12.31
2019-05-09T03:32:21.096Z,12.27
2019-05-09T03:34:50.716Z,12.25
2019-05-09T03:37:20.369Z,12.24
2019-05-09T03:39:49.999Z,12.17
2019-05-09T03:42:22.998Z,12.18
2019-05-09T03:44:50.976Z,12.20
2019-05-09T03:47:27.901Z,12.22
2019-05-09T03:50:11.001Z,12.14
2019-05-09T03:52:40.730Z,12.16
2019-05-09T03:55:13.277Z,12.12
2019-05-09T03:57:44.651Z,12.12
2019-05-09T04:00:14.640Z,12.08
2019-05-09T04:02:44.264Z,12.14
2019-05-09T04:05:13.918Z,12.17
2019-05-09T04:07:43.548Z,12.10
2019-05-09T04:10:13.218Z,12.16
2019-05-09T04:12:53.889Z,12.18
2019-05-09T04:15:14.265Z,12.15
2019-05-09T04:17:44.374Z,12.20
2019-05-09T04:20:17.536Z,12.22
2019-05-09T04:22:49.039Z,12.23
2019-05-09T04:25:19.977Z,12.23
2019-05-09T04:27:51.237Z,12.24
2019-05-09T04:30:20.892Z,12.22
2019-05-09T04:32:50.516Z,12.26
2019-05-09T04:35:20.803Z,12.26
2019-05-09T04:37:50.458Z,12.31
2019-05-09T04:40:22.264Z,12.33
2019-05-09T04:42:51.893Z,12.29
2019-05-09T04:45:33.121Z,12.28
2019-05-09T04:48:00.457Z,12.21
2019-05-09T04:50:30.155Z,12.22
2019-05-09T04:55:48.509Z,12.28
2019-05-09T04:58:19.277Z,12.22
2019-05-09T05:01:07.365Z,12.28
2019-05-09T05:03:37.824Z,12.25
2019-05-09T05:06:07.760Z,12.29
2019-05-09T05:08:37.622Z,12.40
2019-05-09T05:11:07.575Z,12.41
2019-05-09T05:13:38.376Z,12.44
2019-05-09T05:16:08.435Z,12.51
2019-05-09T05:18:38.119Z,12.52
2019-05-09T05:21:07.953Z,12.58
2019-05-09T05:23:50.947Z,12.58
2019-05-09T05:26:21.748Z,12.66
2019-05-09T05:28:51.388Z,12.68
2019-05-09T05:31:21.052Z,12.77
2019-05-09T05:33:53.908Z,12.84
2019-05-09T05:36:24.030Z,12.93
2019-05-09T05:38:53.948Z,12.79
2019-05-09T05:41:23.608Z,12.77
2019-05-09T05:43:53.288Z,12.73
2019-05-09T05:46:30.547Z,12.75
2019-05-09T05:49:00.388Z,12.75
2019-05-09T05:51:31.719Z,12.78
2019-05-09T05:54:02.075Z,12.85
2019-05-09T05:56:31.705Z,12.97
2019-05-09T05:59:01.366Z,12.98
2019-05-09T06:01:31.459Z,13.06
2019-05-09T06:04:01.123Z,13.11
2019-05-09T06:06:33.072Z,13.10
2019-05-09T06:09:03.816Z,13.10
2019-05-09T06:11:33.444Z,13.10
2019-05-09T06:14:10.957Z,12.99
2019-05-09T06:16:37.824Z,12.99
2019-05-09T06:19:09.009Z,12.94
2019-05-09T06:21:38.762Z,12.96
2019-05-09T06:24:08.642Z,12.97
2019-05-09T06:26:38.254Z,13.09
2019-05-09T06:29:08.233Z,13.11
2019-05-09T06:31:37.856Z,13.12
2019-05-09T06:34:08.370Z,13.15
2019-05-09T06:36:39.073Z,13.13
2019-05-09T06:39:10.506Z,13.14
2019-05-09T06:41:40.103Z,13.17
2019-05-09T06:44:18.181Z,13.11
2019-05-09T06:46:48.253Z,13.10
2019-05-09T06:49:27.626Z,13.13
2019-05-09T06:51:50.952Z,13.16
2019-05-09T06:54:20.603Z,13.07
2019-05-09T06:56:50.233Z,13.07
2019-05-09T06:59:19.897Z,13.09
2019-05-09T07:01:53.876Z,13.06
2019-05-09T07:04:25.184Z,12.86
2019-05-09T07:06:58.743Z,12.84
2019-05-09T07:09:35.770Z,12.92
2019-05-09T07:12:07.649Z,12.99
2019-05-09T07:14:41.363Z,12.96
2019-05-09T07:17:08.618Z,12.99
2019-05-09T07:19:38.669Z,13.02
2019-05-09T07:22:18.416Z,13.01
2019-05-09T07:25:10.443Z,13.00
2019-05-09T07:27:42.498Z,12.97
2019-05-09T07:30:21.342Z,12.91
2019-05-09T07:33:01.637Z,12.91
2019-05-09T07:35:31.723Z,12.85
2019-05-09T07:38:01.381Z,12.76
2019-05-09T07:40:31.039Z,12.67
2019-05-09T07:43:00.698Z,12.63
2019-05-09T07:45:30.322Z,12.63
2019-05-09T07:48:00.317Z,12.59
2019-05-09T07:50:29.945Z,12.63
2019-05-09T07:53:00.222Z,12.60
2019-05-09T07:55:29.869Z,12.59
2019-05-09T07:57:59.515Z,12.60
2019-05-09T08:00:35.284Z,12.56
2019-05-09T08:03:08.336Z,12.50
2019-05-09T08:05:38.504Z,12.42
2019-05-09T08:08:11.762Z,12.30
2019-05-09T08:10:41.397Z,12.16
2019-05-09T08:13:12.050Z,12.06
2019-05-09T08:15:41.886Z,12.04
2019-05-09T08:18:11.643Z,11.95
2019-05-09T08:20:41.351Z,11.89
2019-05-09T08:23:11.080Z,11.73
2019-05-09T08:25:40.923Z,11.68
2019-05-09T08:28:10.716Z,11.60
2019-05-09T08:30:40.659Z,11.60
2019-05-09T08:33:10.307Z,11.67
2019-05-09T08:35:39.951Z,11.64
2019-05-09T08:38:09.614Z,11.64
2019-05-09T08:40:39.249Z,11.69
2019-05-09T08:43:08.917Z,11.71
2019-05-09T08:45:38.561Z,11.73
2019-05-09T08:48:09.425Z,11.57
2019-05-09T08:50:48.139Z,11.57
2019-05-09T08:53:18.937Z,11.47
2019-05-09T08:55:48.690Z,11.40
2019-05-09T08:58:19.673Z,11.19
2019-05-09T09:00:49.795Z,11.13
2019-05-09T09:03:19.477Z,11.11
2019-05-09T09:05:49.105Z,10.99
2019-05-09T09:08:18.771Z,10.91
2019-05-09T09:10:48.922Z,10.84
2019-05-09T09:13:18.668Z,10.87
2019-05-09T09:16:08.564Z,10.80
2019-05-09T09:18:19.664Z,10.92
2019-05-09T09:20:49.320Z,10.88
2019-05-09T09:23:19.065Z,10.82
2019-05-09T09:25:49.007Z,10.84
2019-05-09T09:28:18.640Z,10.91
2019-05-09T09:30:48.690Z,11.03
2019-05-09T09:33:18.316Z,11.09
2019-05-09T09:35:49.411Z,11.15
2019-05-09T09:38:19.040Z,11.16
2019-05-09T09:40:48.800Z,11.18
2019-05-09T09:43:18.432Z,11.22
2019-05-09T09:45:57.715Z,11.27
2019-05-09T09:48:19.505Z,11.27
2019-05-09T09:50:51.723Z,11.31
2019-05-09T09:53:20.490Z,11.30
2019-05-09T09:55:50.170Z,11.35
2019-05-09T09:58:19.813Z,11.24
2019-05-09T10:00:51.411Z,11.33
2019-05-09T10:03:21.129Z,11.42
2019-05-09T10:05:51.296Z,11.44
2019-05-09T10:08:21.164Z,11.36
2019-05-09T10:10:50.842Z,11.33
2019-05-09T10:13:20.524Z,11.31
2019-05-09T10:15:54.535Z,11.28
2019-05-09T10:18:38.223Z,11.46
2019-05-09T10:21:15.413Z,11.60
2019-05-09T10:23:45.036Z,11.59
2019-05-09T10:26:14.723Z,11.64
2019-05-09T10:28:45.510Z,11.60
2019-05-09T10:31:15.389Z,11.61
2019-05-09T10:33:45.015Z,11.71
2019-05-09T10:36:14.687Z,11.84
2019-05-09T10:38:44.336Z,11.81
2019-05-09T10:41:13.998Z,11.85
2019-05-09T10:43:45.265Z,11.85
2019-05-09T10:46:30.001Z,11.87
2019-05-09T10:49:04.543Z,11.80
2019-05-09T10:51:34.210Z,11.95
2019-05-09T10:54:03.955Z,11.99
2019-05-09T10:56:38.163Z,11.94
2019-05-09T10:59:07.839Z,12.03
2019-05-09T11:01:38.360Z,11.98
2019-05-09T11:04:08.533Z,11.90
2019-05-09T11:06:38.585Z,11.88
2019-05-09T11:09:09.948Z,11.95
2019-05-09T11:11:39.910Z,11.94
2019-05-09T11:14:09.534Z,11.88
2019-05-09T11:16:45.721Z,11.86
2019-05-09T11:19:10.529Z,12.00
2019-05-09T11:21:40.178Z,12.02
2019-05-09T11:24:09.951Z,12.12
2019-05-09T11:26:40.118Z,12.08
2019-05-09T11:29:09.822Z,12.17
2019-05-09T11:31:39.460Z,12.25
2019-05-09T11:34:09.237Z,12.15
2019-05-09T11:36:38.844Z,12.10
2019-05-09T11:39:10.734Z,12.11
2019-05-09T11:41:40.360Z,12.11
2019-05-09T11:44:10.129Z,12.15
2019-05-09T11:46:39.755Z,12.19
2019-05-09T11:49:09.416Z,12.21
2019-05-09T11:51:39.051Z,12.25
2019-05-09T11:54:09.273Z,12.36
2019-05-09T11:56:38.924Z,12.40
2019-05-09T11:59:10.022Z,12.38
2019-05-09T12:01:40.016Z,12.38
2019-05-09T12:04:09.884Z,12.34
2019-05-09T12:06:39.512Z,12.41
2019-05-09T12:09:09.647Z,12.45
2019-05-09T12:11:44.223Z,12.50
2019-05-09T12:14:10.807Z,12.54
2019-05-09T12:16:40.429Z,12.52
2019-05-09T12:19:10.087Z,12.57
2019-05-09T12:21:47.610Z,12.51
2019-05-09T12:24:11.589Z,12.55
2019-05-09T12:26:41.215Z,12.41
2019-05-09T12:29:10.887Z,12.38
2019-05-09T12:31:40.512Z,12.35
2019-05-09T12:34:10.192Z,12.33
2019-05-09T12:36:40.117Z,12.47
2019-05-09T12:39:09.754Z,12.60
2019-05-09T12:41:39.873Z,12.56
2019-05-09T12:44:09.690Z,12.59
2019-05-09T12:46:39.666Z,12.47
2019-05-09T12:49:09.343Z,12.44
2019-05-09T12:51:38.969Z,12.49
2019-05-09T12:54:08.870Z,12.54
2019-05-09T12:56:38.749Z,12.70
2019-05-09T12:59:08.943Z,12.73
2019-05-09T13:01:40.779Z,12.62
2019-05-09T13:04:10.025Z,12.79
2019-05-09T13:06:39.693Z,13.02
2019-05-09T13:09:09.334Z,13.24
2019-05-09T13:11:39.305Z,13.26
2019-05-09T13:14:10.112Z,13.38
2019-05-09T13:16:49.036Z,13.40
2019-05-09T13:19:14.671Z,13.31
2019-05-09T13:21:44.328Z,13.31
2019-05-09T13:24:13.958Z,13.25
2019-05-09T13:26:47.824Z,13.27
2019-05-09T13:29:16.650Z,13.36
2019-05-09T13:31:48.310Z,13.39
2019-05-09T13:34:18.860Z,13.48
2019-05-09T13:36:49.093Z,13.62
2019-05-09T13:39:18.734Z,13.66
2019-05-09T13:41:48.376Z,13.74
2019-05-09T13:44:18.348Z,13.76
2019-05-09T13:46:48.829Z,13.89
2019-05-09T13:49:19.389Z,13.92
2019-05-09T13:51:58.572Z,14.05
2019-05-09T13:54:20.526Z,13.98
2019-05-09T13:56:56.985Z,14.02
2019-05-09T13:59:21.643Z,14.06
2019-05-09T14:01:51.312Z,14.15
2019-05-09T14:04:21.432Z,14.19
2019-05-09T14:06:51.783Z,14.25
2019-05-09T14:09:21.412Z,14.25
2019-05-09T14:11:52.067Z,14.25
2019-05-09T14:14:21.699Z,14.34
2019-05-09T14:16:51.360Z,14.37
2019-05-09T14:19:35.921Z,14.30
2019-05-09T14:21:52.361Z,14.32
2019-05-09T14:24:22.070Z,14.39
2019-05-09T14:26:51.718Z,14.37
2019-05-09T14:29:21.336Z,14.27
2019-05-09T14:31:51.091Z,14.19
2019-05-09T14:34:21.120Z,14.16
2019-05-09T14:36:50.776Z,13.90
2019-05-09T14:39:20.427Z,13.94
2019-05-09T14:41:50.069Z,13.83
2019-05-09T14:44:19.697Z,13.82
2019-05-09T14:46:49.371Z,13.86
2019-05-09T14:49:19.584Z,13.84
2019-05-09T14:51:50.044Z,13.94
2019-05-09T14:54:19.855Z,14.02
2019-05-09T14:56:49.513Z,14.04
2019-05-09T14:59:19.150Z,13.98
2019-05-09T15:01:49.503Z,14.01
2019-05-09T15:04:19.403Z,13.99
2019-05-09T15:06:49.061Z,13.94
2019-05-09T15:09:18.681Z,14.00
2019-05-09T15:11:48.699Z,13.94
2019-05-09T15:14:18.455Z,13.95
2019-05-09T15:16:48.656Z,14.00
2019-05-09T15:19:18.568Z,14.02
2019-05-09T15:21:48.915Z,14.07
2019-05-09T15:24:19.407Z,14.09
2019-05-09T15:26:49.317Z,14.10
2019-05-09T15:29:19.283Z,13.97
2019-05-09T15:31:54.265Z,14.01
2019-05-09T15:34:20.357Z,14.02
2019-05-09T15:36:51.149Z,13.98
2019-05-09T15:39:20.803Z,13.82
2019-05-09T15:41:50.432Z,13.80
2019-05-09T15:44:20.108Z,13.83
2019-05-09T15:47:03.435Z,13.83
2019-05-09T15:49:33.110Z,13.88
2019-05-09T15:52:03.109Z,13.90
2019-05-09T15:54:32.812Z,13.89
2019-05-09T15:57:11.820Z,13.92
2019-05-09T15:59:43.189Z,13.98
2019-05-09T16:02:12.977Z,14.05
2019-05-09T16:04:43.096Z,13.95
2019-05-09T16:07:13.193Z,13.94
2019-05-09T16:09:42.852Z,13.87
2019-05-09T16:12:12.480Z,13.85
2019-05-09T16:14:42.176Z,13.87
2019-05-09T16:17:11.900Z,13.89
2019-05-09T16:19:41.559Z,13.93
2019-05-09T16:22:11.183Z,13.85
2019-05-09T16:24:43.347Z,13.84
2019-05-09T16:27:13.065Z,13.88
2019-05-09T16:29:43.027Z,13.83
2019-05-09T16:32:12.752Z,13.84
2019-05-09T16:34:42.412Z,13.81
2019-05-09T16:37:12.067Z,13.80
2019-05-09T16:39:43.083Z,13.83
2019-05-09T16:42:12.730Z,13.84
2019-05-09T16:44:42.398Z,13.83
2019-05-09T16:47:12.025Z,13.86
2019-05-09T16:49:41.693Z,13.86
2019-05-09T16:52:11.323Z,13.74
2019-05-09T16:54:42.701Z,13.75
2019-05-09T16:57:12.433Z,13.76
2019-05-09T16:59:42.259Z,13.63
2019-05-09T17:02:21.800Z,13.55
2019-05-09T17:04:43.310Z,13.58
2019-05-09T17:07:15.375Z,13.55
2019-05-09T17:09:48.363Z,13.54
2019-05-09T17:12:18.617Z,13.56
2019-05-09T17:14:50.081Z,13.55
2019-05-09T17:17:19.785Z,13.56
2019-05-09T17:19:50.740Z,13.48
2019-05-09T17:22:40.689Z,13.51
2019-05-09T17:25:10.586Z,13.47
2019-05-09T17:27:40.203Z,13.40
2019-05-09T17:30:10.197Z,13.43
2019-05-09T17:32:40.115Z,13.37
2019-05-09T17:35:09.864Z,13.40
2019-05-09T17:37:39.543Z,13.32
2019-05-09T17:40:10.190Z,13.33
2019-05-09T17:42:39.821Z,13.32
2019-05-09T17:45:09.495Z,13.28
2019-05-09T17:47:39.191Z,13.24
2019-05-09T17:50:08.986Z,13.25
2019-05-09T17:52:38.617Z,13.28
2019-05-09T17:55:08.295Z,13.24
2019-05-09T17:57:38.802Z,13.25
2019-05-09T18:00:10.671Z,13.25
2019-05-09T18:02:40.303Z,13.27
2019-05-09T18:05:10.116Z,13.29
2019-05-09T18:07:39.747Z,13.28
2019-05-09T18:10:09.879Z,13.30
2019-05-09T18:12:39.523Z,13.24
2019-05-09T18:15:09.434Z,13.21
2019-05-09T18:17:39.390Z,13.24
2019-05-09T18:20:09.325Z,13.22
2019-05-09T18:22:38.951Z,13.18
2019-05-09T18:25:09.939Z,13.09
2019-05-09T18:27:39.603Z,13.07
2019-05-09T18:30:10.083Z,12.99
2019-05-09T18:32:41.682Z,13.01
2019-05-09T18:35:13.173Z,12.97
2019-05-09T18:37:43.074Z,12.90
2019-05-09T18:40:13.450Z,12.88
2019-05-09T18:42:47.568Z,12.81
2019-05-09T18:45:17.746Z,12.77
2019-05-09T18:47:50.754Z,12.75
2019-05-09T18:50:22.230Z,12.66
2019-05-09T18:52:55.001Z,12.69
2019-05-09T18:55:24.770Z,12.64
2019-05-09T18:57:56.799Z,12.58
2019-05-09T19:00:27.273Z,12.60
2019-05-09T19:02:57.080Z,12.55
2019-05-09T19:05:27.156Z,12.52
2019-05-09T19:07:58.887Z,12.50
2019-05-09T19:10:28.629Z,12.44
2019-05-09T19:12:58.285Z,12.44
2019-05-09T19:15:41.598Z,12.38
2019-05-09T19:18:12.902Z,12.34
2019-05-09T19:20:50.251Z,12.31
2019-05-09T19:23:21.631Z,12.21
2019-05-09T19:25:53.488Z,12.18
2019-05-09T19:28:25.074Z,12.12
2019-05-09T19:30:54.860Z,12.07
2019-05-09T19:33:24.834Z,11.99
2019-05-09T19:35:54.608Z,11.94
2019-05-09T19:38:24.404Z,11.88
2019-05-09T19:40:54.220Z,11.86
2019-05-09T19:43:23.951Z,11.80
2019-05-09T19:45:53.669Z,11.74
2019-05-09T19:48:26.154Z,11.60
2019-05-09T19:50:58.857Z,11.52
2019-05-09T19:53:28.673Z,11.47
2019-05-09T19:55:58.543Z,11.40
2019-05-09T19:58:28.294Z,11.37
2019-05-09T20:00:58.052Z,11.25
2019-05-09T20:03:27.815Z,11.18
2019-05-09T20:06:00.576Z,11.12
2019-05-09T20:08:34.118Z,11.10
2019-05-09T20:11:06.889Z,11.05
2019-05-09T20:13:54.250Z,11.01
2019-05-09T20:16:24.263Z,10.95
2019-05-09T20:18:54.069Z,10.90
2019-05-09T20:21:23.882Z,10.89
2019-05-09T20:23:53.655Z,10.83
2019-05-09T20:26:23.438Z,10.80
2019-05-09T20:28:53.128Z,10.75
2019-05-09T20:31:23.286Z,10.65
2019-05-09T20:33:53.255Z,10.61
2019-05-09T20:36:22.932Z,10.55
2019-05-09T20:38:53.484Z,10.55
2019-05-09T20:41:26.926Z,10.48
2019-05-09T20:43:56.785Z,10.44
2019-05-09T20:46:26.717Z,10.41
2019-05-09T20:48:56.570Z,10.31
2019-05-09T20:51:26.388Z,10.29
2019-05-09T20:53:56.332Z,10.24
2019-05-09T20:56:26.143Z,10.16
2019-05-09T20:58:56.071Z,10.11
2019-05-09T21:01:25.887Z,10.12
2019-05-09T21:04:00.176Z,9.96
2019-05-09T21:06:27.262Z,9.88
2019-05-09T21:08:57.098Z,9.77
2019-05-09T21:11:26.917Z,9.77
2019-05-09T21:13:56.948Z,9.71
2019-05-09T21:16:26.760Z,9.73
2019-05-09T21:18:56.596Z,9.70
2019-05-09T21:21:26.401Z,9.72
2019-05-09T21:23:56.242Z,9.65
2019-05-09T21:26:26.052Z,9.57
2019-05-09T21:28:55.889Z,9.56
2019-05-09T21:31:25.711Z,9.53
2019-05-09T21:33:55.766Z,9.55
2019-05-09T21:36:25.423Z,9.51
2019-05-09T21:38:55.057Z,9.50
2019-05-09T21:41:24.721Z,9.44
2019-05-09T21:43:54.349Z,9.42
2019-05-09T21:46:24.014Z,9.42
2019-05-09T21:48:53.640Z,9.43
2019-05-09T21:51:23.300Z,9.43
2019-05-09T21:53:52.928Z,9.42
2019-05-09T21:56:22.585Z,9.45
2019-05-09T21:58:52.215Z,9.43
2019-05-09T22:01:21.945Z,9.37
2019-05-09T22:03:51.813Z,9.36
2019-05-09T22:06:21.469Z,9.37
2019-05-09T22:08:51.145Z,9.41
2019-05-09T22:11:20.909Z,9.40
2019-05-09T22:13:50.536Z,9.37
2019-05-09T22:16:20.196Z,9.33
2019-05-09T22:18:49.892Z,9.33
2019-05-09T22:21:22.469Z,9.42
2019-05-09T22:23:56.622Z,9.42
2019-05-09T22:26:23.466Z,9.45
2019-05-09T22:28:53.091Z,9.47
2019-05-09T22:31:22.748Z,9.49
2019-05-09T22:33:52.383Z,9.45
2019-05-09T22:36:22.035Z,9.42
2019-05-09T22:38:51.670Z,9.44
2019-05-09T22:41:21.319Z,9.43
2019-05-09T22:43:50.948Z,9.42
2019-05-09T22:46:20.609Z,9.38
2019-05-09T22:48:50.240Z,9.41
2019-05-09T22:51:19.992Z,9.30
2019-05-09T22:53:49.621Z,9.20
2019-05-09T22:56:19.323Z,9.14
2019-05-09T22:58:48.938Z,9.12
2019-05-09T23:01:18.700Z,9.02
2019-05-09T23:03:48.522Z,9.00
2019-05-09T23:06:18.278Z,8.96
2019-05-09T23:08:48.004Z,8.97
2019-05-09T23:11:17.753Z,9.00
2019-05-09T23:13:53.408Z,8.97
2019-05-09T23:16:25.638Z,8.91
2019-05-09T23:18:55.623Z,8.81
2019-05-09T23:21:27.019Z,8.75
2019-05-09T23:24:04.418Z,8.75
2019-05-09T23:26:34.200Z,8.69
2019-05-09T23:29:03.896Z,8.65
2019-05-09T23:31:35.791Z,8.59
2019-05-09T23:34:05.656Z,8.53
2019-05-09T23:36:35.709Z,8.45
2019-05-09T23:39:19.752Z,8.42
2019-05-09T23:41:49.505Z,8.33
2019-05-09T23:44:19.150Z,8.24
2019-05-09T23:46:48.778Z,8.22
2019-05-09T23:49:18.442Z,8.23
2019-05-09T23:51:48.829Z,8.20
2019-05-09T23:54:46.427Z,8.10
2019-05-09T23:57:29.654Z,8.00
